sensor_id;sensor_type;location;lat;lon;timestamp;pressure;altitude;pressure_sealevel;temperature;humidity
76122;BME280;64853;53.200;6.080;2023-02-21T00:05:01;101772.50;;;17.87;44.75
76122;BME280;64853;53.200;6.080;2023-02-21T00:10:12;101773.84;;;17.84;44.84
76122;BME280;64853;53.200;6.080;2023-02-21T00:15:22;101773.53;;;17.81;44.87
76122;BME280;64853;53.200;6.080;2023-02-21T00:20:32;101768.03;;;17.81;44.85
76122;BME280;64853;53.200;6.080;2023-02-21T00:25:41;101778.50;;;17.79;44.88
76122;BME280;64853;53.200;6.080;2023-02-21T00:30:50;101779.84;;;17.76;44.82
76122;BME280;64853;53.200;6.080;2023-02-21T00:36:00;101784.78;;;17.74;44.84
76122;BME280;64853;53.200;6.080;2023-02-21T00:41:09;101785.06;;;17.73;44.74
76122;BME280;64853;53.200;6.080;2023-02-21T00:46:18;101781.47;;;17.72;44.74
76122;BME280;64853;53.200;6.080;2023-02-21T00:51:29;101777.84;;;17.66;44.74
76122;BME280;64853;53.200;6.080;2023-02-21T00:56:38;101777.84;;;17.66;44.92
76122;BME280;64853;53.200;6.080;2023-02-21T01:01:47;101766.81;;;17.66;44.70
76122;BME280;64853;53.200;6.080;2023-02-21T01:06:57;101771.16;;;17.62;44.76
76122;BME280;64853;53.200;6.080;2023-02-21T01:12:06;101757.66;;;17.61;44.81
76122;BME280;64853;53.200;6.080;2023-02-21T01:17:15;101754.91;;;17.61;44.86
76122;BME280;64853;53.200;6.080;2023-02-21T01:22:25;101759.84;;;17.59;44.93
76122;BME280;64853;53.200;6.080;2023-02-21T01:27:35;101761.22;;;17.56;44.69
76122;BME280;64853;53.200;6.080;2023-02-21T01:32:44;101759.56;;;17.55;44.71
76122;BME280;64853;53.200;6.080;2023-02-21T01:37:55;101751.53;;;17.54;45.02
76122;BME280;64853;53.200;6.080;2023-02-21T01:43:12;101749.63;;;17.54;44.81
76122;BME280;64853;53.200;6.080;2023-02-21T01:48:23;101749.06;;;17.52;44.77
76122;BME280;64853;53.200;6.080;2023-02-21T01:53:34;101743.25;;;17.48;44.85
76122;BME280;64853;53.200;6.080;2023-02-21T01:58:43;101737.41;;;17.45;44.74
76122;BME280;64853;53.200;6.080;2023-02-21T02:03:53;101741.00;;;17.45;44.87
76122;BME280;64853;53.200;6.080;2023-02-21T02:09:13;101744.03;;;17.44;44.83
76122;BME280;64853;53.200;6.080;2023-02-21T02:14:49;101751.13;;;17.40;44.86
76122;BME280;64853;53.200;6.080;2023-02-21T02:20:09;101740.13;;;17.40;44.78
76122;BME280;64853;53.200;6.080;2023-02-21T02:25:19;101742.31;;;17.38;44.92
76122;BME280;64853;53.200;6.080;2023-02-21T02:30:42;101743.13;;;17.38;44.67
76122;BME280;64853;53.200;6.080;2023-02-21T02:35:42;101741.50;;;17.37;44.83
76122;BME280;64853;53.200;6.080;2023-02-21T02:40:41;101737.31;;;17.35;44.85
76122;BME280;64853;53.200;6.080;2023-02-21T02:45:40;101750.53;;;17.33;44.75
76122;BME280;64853;53.200;6.080;2023-02-21T02:50:35;101748.03;;;17.31;44.80
76122;BME280;64853;53.200;6.080;2023-02-21T02:55:36;101746.63;;;17.28;44.78
76122;BME280;64853;53.200;6.080;2023-02-21T03:00:30;101750.47;;;17.27;44.93
76122;BME280;64853;53.200;6.080;2023-02-21T03:05:35;101751.56;;;17.26;44.94
76122;BME280;64853;53.200;6.080;2023-02-21T03:10:37;101766.44;;;17.25;44.96
76122;BME280;64853;53.200;6.080;2023-02-21T03:15:35;101775.78;;;17.24;44.94
76122;BME280;64853;53.200;6.080;2023-02-21T03:20:29;101775.78;;;17.24;44.94
76122;BME280;64853;53.200;6.080;2023-02-21T03:25:23;101782.38;;;17.23;44.72
76122;BME280;64853;53.200;6.080;2023-02-21T03:30:17;101792.81;;;17.21;44.70
76122;BME280;64853;53.200;6.080;2023-02-21T03:35:09;101791.16;;;17.20;44.87
76122;BME280;64853;53.200;6.080;2023-02-21T03:40:02;101786.75;;;17.19;44.98
76122;BME280;64853;53.200;6.080;2023-02-21T03:44:53;101787.84;;;17.18;44.82
76122;BME280;64853;53.200;6.080;2023-02-21T03:49:46;101801.63;;;17.18;44.99
76122;BME280;64853;53.200;6.080;2023-02-21T03:54:38;101790.88;;;17.17;44.87
76122;BME280;64853;53.200;6.080;2023-02-21T03:59:29;101790.25;;;17.15;44.75
76122;BME280;64853;53.200;6.080;2023-02-21T04:04:21;101792.19;;;17.14;44.93
76122;BME280;64853;53.200;6.080;2023-02-21T04:09:14;101799.59;;;17.13;44.92
76122;BME280;64853;53.200;6.080;2023-02-21T04:14:05;101807.00;;;17.13;44.85
76122;BME280;64853;53.200;6.080;2023-02-21T04:18:57;101814.47;;;17.12;45.06
76122;BME280;64853;53.200;6.080;2023-02-21T04:23:48;101815.53;;;17.11;44.89
76122;BME280;64853;53.200;6.080;2023-02-21T04:28:41;101804.25;;;17.13;44.82
76122;BME280;64853;53.200;6.080;2023-02-21T04:33:33;101805.38;;;17.12;44.99
76122;BME280;64853;53.200;6.080;2023-02-21T04:38:24;101807.28;;;17.11;45.06
76122;BME280;64853;53.200;6.080;2023-02-21T04:43:16;101800.38;;;17.09;44.80
76122;BME280;64853;53.200;6.080;2023-02-21T04:48:08;101794.88;;;17.09;44.85
76122;BME280;64853;53.200;6.080;2023-02-21T04:53:00;101802.03;;;17.10;44.83
76122;BME280;64853;53.200;6.080;2023-02-21T04:57:51;101815.66;;;17.17;44.88
76122;BME280;64853;53.200;6.080;2023-02-21T05:02:43;101804.00;;;17.37;44.46
76122;BME280;64853;53.200;6.080;2023-02-21T05:07:36;101803.19;;;17.68;44.39
76122;BME280;64853;53.200;6.080;2023-02-21T05:12:28;101802.03;;;17.92;43.96
76122;BME280;64853;53.200;6.080;2023-02-21T05:17:20;101799.97;;;18.04;43.92
76122;BME280;64853;53.200;6.080;2023-02-21T05:22:12;101794.78;;;18.18;43.74
76122;BME280;64853;53.200;6.080;2023-02-21T05:27:04;101796.28;;;18.31;43.75
76122;BME280;64853;53.200;6.080;2023-02-21T05:32:00;101794.97;;;18.44;43.32
76122;BME280;64853;53.200;6.080;2023-02-21T05:36:52;101799.44;;;18.50;43.47
76122;BME280;64853;53.200;6.080;2023-02-21T05:41:47;101795.03;;;18.59;43.25
76122;BME280;64853;53.200;6.080;2023-02-21T05:46:40;101794.84;;;18.71;43.15
76122;BME280;64853;53.200;6.080;2023-02-21T05:51:33;101791.81;;;18.78;43.15
76122;BME280;64853;53.200;6.080;2023-02-21T05:56:26;101795.75;;;18.87;43.08
76122;BME280;64853;53.200;6.080;2023-02-21T06:01:17;101804.91;;;18.98;42.97
76122;BME280;64853;53.200;6.080;2023-02-21T06:06:10;101812.94;;;19.04;43.19
76122;BME280;64853;53.200;6.080;2023-02-21T06:11:01;101803.00;;;19.08;42.83
76122;BME280;64853;53.200;6.080;2023-02-21T06:15:53;101795.03;;;19.17;42.89
76122;BME280;64853;53.200;6.080;2023-02-21T06:20:45;101798.91;;;19.21;42.86
76122;BME280;64853;53.200;6.080;2023-02-21T06:25:38;101794.50;;;19.25;42.51
76122;BME280;64853;53.200;6.080;2023-02-21T06:30:29;101789.81;;;19.31;42.61
76122;BME280;64853;53.200;6.080;2023-02-21T06:35:21;101795.63;;;19.29;42.62
76122;BME280;64853;53.200;6.080;2023-02-21T06:40:12;101804.19;;;19.28;42.63
76122;BME280;64853;53.200;6.080;2023-02-21T06:45:06;101810.25;;;19.30;42.77
76122;BME280;64853;53.200;6.080;2023-02-21T06:49:57;101814.69;;;19.31;42.78
76122;BME280;64853;53.200;6.080;2023-02-21T06:54:49;101808.03;;;19.32;42.88
76122;BME280;64853;53.200;6.080;2023-02-21T06:59:40;101811.91;;;19.31;42.60
76122;BME280;64853;53.200;6.080;2023-02-21T07:04:33;101816.03;;;19.28;42.70
76122;BME280;64853;53.200;6.080;2023-02-21T07:09:24;101810.78;;;19.27;42.67
76122;BME280;64853;53.200;6.080;2023-02-21T07:14:16;101820.75;;;19.23;43.08
76122;BME280;64853;53.200;6.080;2023-02-21T07:19:07;101817.41;;;19.21;43.09
76122;BME280;64853;53.200;6.080;2023-02-21T07:24:00;101814.91;;;19.19;43.46
76122;BME280;64853;53.200;6.080;2023-02-21T07:28:52;101825.16;;;19.19;44.97
76122;BME280;64853;53.200;6.080;2023-02-21T07:33:43;101821.03;;;19.21;44.29
76122;BME280;64853;53.200;6.080;2023-02-21T07:38:34;101830.13;;;19.22;44.50
76122;BME280;64853;53.200;6.080;2023-02-21T07:43:28;101825.16;;;19.24;44.03
76122;BME280;64853;53.200;6.080;2023-02-21T07:48:20;101830.13;;;19.22;44.00
76122;BME280;64853;53.200;6.080;2023-02-21T07:53:12;101833.16;;;19.20;44.67
76122;BME280;64853;53.200;6.080;2023-02-21T07:58:04;101829.06;;;19.38;44.21
76122;BME280;64853;53.200;6.080;2023-02-21T08:02:57;101842.31;;;19.36;44.15
76122;BME280;64853;53.200;6.080;2023-02-21T08:07:48;101832.34;;;19.25;44.12
76122;BME280;64853;53.200;6.080;2023-02-21T08:12:40;101840.34;;;19.21;43.77
76122;BME280;64853;53.200;6.080;2023-02-21T08:17:31;101836.47;;;19.27;45.37
76122;BME280;64853;53.200;6.080;2023-02-21T08:22:24;101837.88;;;19.30;44.84
76122;BME280;64853;53.200;6.080;2023-02-21T08:27:15;101837.88;;;19.30;44.15
76122;BME280;64853;53.200;6.080;2023-02-21T08:32:07;101837.06;;;19.24;44.36
76122;BME280;64853;53.200;6.080;2023-02-21T08:36:59;101836.19;;;19.19;44.40
76122;BME280;64853;53.200;6.080;2023-02-21T08:41:52;101847.78;;;19.16;44.25
76122;BME280;64853;53.200;6.080;2023-02-21T08:46:44;101841.41;;;19.10;44.18
76122;BME280;64853;53.200;6.080;2023-02-21T08:51:35;101848.59;;;19.06;44.77
76122;BME280;64853;53.200;6.080;2023-02-21T08:56:27;101849.41;;;19.06;45.13
76122;BME280;64853;53.200;6.080;2023-02-21T09:01:21;101852.19;;;19.11;44.96
76122;BME280;64853;53.200;6.080;2023-02-21T09:06:13;101856.06;;;19.16;44.51
76122;BME280;64853;53.200;6.080;2023-02-21T09:11:04;101847.78;;;19.10;44.60
76122;BME280;64853;53.200;6.080;2023-02-21T09:15:56;101857.69;;;19.06;44.95
76122;BME280;64853;53.200;6.080;2023-02-21T09:20:49;101847.50;;;19.12;46.01
76122;BME280;64853;53.200;6.080;2023-02-21T09:25:41;101845.63;;;19.23;44.97
76122;BME280;64853;53.200;6.080;2023-02-21T09:30:32;101830.72;;;19.44;46.60
76122;BME280;64853;53.200;6.080;2023-02-21T09:35:24;101840.47;;;19.73;45.02
76122;BME280;64853;53.200;6.080;2023-02-21T09:40:24;101825.81;;;19.82;44.18
76122;BME280;64853;53.200;6.080;2023-02-21T09:45:18;101830.25;;;19.73;43.73
76122;BME280;64853;53.200;6.080;2023-02-21T09:50:13;101836.59;;;19.63;43.72
76122;BME280;64853;53.200;6.080;2023-02-21T09:55:10;101833.56;;;19.60;43.80
76122;BME280;64853;53.200;6.080;2023-02-21T10:00:15;101831.88;;;19.64;45.62
76122;BME280;64853;53.200;6.080;2023-02-21T10:05:17;101839.13;;;19.75;44.81
76122;BME280;64853;53.200;6.080;2023-02-21T10:10:14;101840.75;;;19.76;43.82
76122;BME280;64853;53.200;6.080;2023-02-21T10:15:18;101847.38;;;19.70;43.25
76122;BME280;64853;53.200;6.080;2023-02-21T10:20:15;101841.84;;;19.65;43.59
76122;BME280;64853;53.200;6.080;2023-02-21T10:25:19;101844.63;;;19.60;43.48
76122;BME280;64853;53.200;6.080;2023-02-21T10:30:22;101851.81;;;19.66;43.00
76122;BME280;64853;53.200;6.080;2023-02-21T10:35:15;101849.31;;;19.64;43.32
76122;BME280;64853;53.200;6.080;2023-02-21T10:40:30;101849.84;;;19.56;44.32
76122;BME280;64853;53.200;6.080;2023-02-21T10:45:31;101853.44;;;19.57;44.15
76122;BME280;64853;53.200;6.080;2023-02-21T10:50:47;101852.38;;;19.63;43.94
76122;BME280;64853;53.200;6.080;2023-02-21T10:55:39;101847.66;;;19.63;43.58
76122;BME280;64853;53.200;6.080;2023-02-21T11:00:35;101856.22;;;19.62;43.25
76122;BME280;64853;53.200;6.080;2023-02-21T11:05:28;101831.00;;;19.43;43.79
76122;BME280;64853;53.200;6.080;2023-02-21T11:10:29;101862.81;;;19.51;44.39
76122;BME280;64853;53.200;6.080;2023-02-21T11:15:21;101847.91;;;19.57;43.99
76122;BME280;64853;53.200;6.080;2023-02-21T11:20:18;101851.75;;;19.56;43.30
76122;BME280;64853;53.200;6.080;2023-02-21T11:25:19;101856.72;;;19.48;43.65
76122;BME280;64853;53.200;6.080;2023-02-21T11:30:15;101858.38;;;19.50;44.63
76122;BME280;64853;53.200;6.080;2023-02-21T11:35:22;101862.81;;;19.56;45.21
76122;BME280;64853;53.200;6.080;2023-02-21T11:40:26;101856.78;;;19.59;45.72
76122;BME280;64853;53.200;6.080;2023-02-21T11:45:19;101855.41;;;19.61;47.37
76122;BME280;64853;53.200;6.080;2023-02-21T11:50:23;101858.16;;;19.67;45.23
76122;BME280;64853;53.200;6.080;2023-02-21T11:55:16;101844.34;;;19.61;45.90
76122;BME280;64853;53.200;6.080;2023-02-21T12:00:17;101841.03;;;19.70;45.29
76122;BME280;64853;53.200;6.080;2023-02-21T12:05:24;101842.97;;;19.69;45.54
76122;BME280;64853;53.200;6.080;2023-02-21T12:10:31;101841.31;;;19.68;44.89
76122;BME280;64853;53.200;6.080;2023-02-21T12:15:34;101838.53;;;19.63;44.28
76122;BME280;64853;53.200;6.080;2023-02-21T12:20:55;101831.31;;;19.57;44.98
76122;BME280;64853;53.200;6.080;2023-02-21T12:26:00;101830.78;;;19.65;44.89
76122;BME280;64853;53.200;6.080;2023-02-21T12:31:06;101820.81;;;19.64;44.88
76122;BME280;64853;53.200;6.080;2023-02-21T12:36:12;101829.16;;;19.69;44.38
76122;BME280;64853;53.200;6.080;2023-02-21T12:41:18;101818.09;;;19.69;44.55
76122;BME280;64853;53.200;6.080;2023-02-21T12:46:18;101816.97;;;19.65;46.54
76122;BME280;64853;53.200;6.080;2023-02-21T12:51:17;101798.97;;;19.47;46.50
76122;BME280;64853;53.200;6.080;2023-02-21T12:56:12;101820.78;;;19.54;45.91
76122;BME280;64853;53.200;6.080;2023-02-21T13:01:08;101813.66;;;19.63;47.05
76122;BME280;64853;53.200;6.080;2023-02-21T13:06:09;101802.34;;;20.00;47.59
76122;BME280;64853;53.200;6.080;2023-02-21T13:11:11;101805.88;;;20.27;45.92
76122;BME280;64853;53.200;6.080;2023-02-21T13:16:06;101805.88;;;20.27;45.11
76122;BME280;64853;53.200;6.080;2023-02-21T13:21:06;101798.44;;;20.12;44.43
76122;BME280;64853;53.200;6.080;2023-02-21T13:26:14;101790.13;;;20.07;44.93
76122;BME280;64853;53.200;6.080;2023-02-21T13:31:27;101788.50;;;20.00;44.59
76122;BME280;64853;53.200;6.080;2023-02-21T13:36:26;101788.22;;;19.97;45.72
76122;BME280;64853;53.200;6.080;2023-02-21T13:41:23;101791.53;;;20.04;45.55
76122;BME280;64853;53.200;6.080;2023-02-21T13:47:05;101783.22;;;20.04;44.63
76122;BME280;64853;53.200;6.080;2023-02-21T13:52:15;101781.31;;;19.99;45.02
76122;BME280;64853;53.200;6.080;2023-02-21T14:02:33;101786.84;;;19.99;45.39
76122;BME280;64853;53.200;6.080;2023-02-21T14:07:57;101781.03;;;19.96;45.21
76122;BME280;64853;53.200;6.080;2023-02-21T14:12:57;101772.72;;;19.91;44.86
76122;BME280;64853;53.200;6.080;2023-02-21T14:17:51;101770.50;;;19.88;44.67
76122;BME280;64853;53.200;6.080;2023-02-21T14:22:43;101774.94;;;19.83;45.78
76122;BME280;64853;53.200;6.080;2023-02-21T14:27:36;101774.38;;;19.76;45.87
76122;BME280;64853;53.200;6.080;2023-02-21T14:32:32;101769.41;;;19.73;45.51
76122;BME280;64853;53.200;6.080;2023-02-21T14:37:31;101755.31;;;19.70;47.04
76122;BME280;64853;53.200;6.080;2023-02-21T14:42:32;101758.94;;;19.75;46.55
76122;BME280;64853;53.200;6.080;2023-02-21T14:53:35;101768.03;;;19.65;47.11
76122;BME280;64853;53.200;6.080;2023-02-21T14:59:08;101756.16;;;19.65;47.10
76122;BME280;64853;53.200;6.080;2023-02-21T15:04:11;101755.88;;;19.67;47.39
76122;BME280;64853;53.200;6.080;2023-02-21T15:09:16;101758.38;;;19.63;47.11
76122;BME280;64853;53.200;6.080;2023-02-21T15:14:15;101764.44;;;19.60;46.58
76122;BME280;64853;53.200;6.080;2023-02-21T15:19:18;101767.19;;;19.55;46.65
76122;BME280;64853;53.200;6.080;2023-02-21T15:24:14;101765.25;;;19.50;47.33
76122;BME280;64853;53.200;6.080;2023-02-21T15:29:07;101767.19;;;19.55;46.86
76122;BME280;64853;53.200;6.080;2023-02-21T15:33:59;101762.19;;;19.57;46.26
76122;BME280;64853;53.200;6.080;2023-02-21T15:38:58;101765.50;;;19.54;46.51
76122;BME280;64853;53.200;6.080;2023-02-21T15:43:57;101758.31;;;19.42;46.82
76122;BME280;64853;53.200;6.080;2023-02-21T15:48:52;101754.19;;;19.50;47.08
76122;BME280;64853;53.200;6.080;2023-02-21T15:54:07;101756.41;;;19.53;46.77
76122;BME280;64853;53.200;6.080;2023-02-21T15:59:19;101756.69;;;19.52;46.21
76122;BME280;64853;53.200;6.080;2023-02-21T16:04:16;101758.88;;;19.50;46.50
76122;BME280;64853;53.200;6.080;2023-02-21T16:09:19;101754.47;;;19.48;46.94
76122;BME280;64853;53.200;6.080;2023-02-21T16:14:21;101761.91;;;19.48;47.02
76122;BME280;64853;53.200;6.080;2023-02-21T16:19:14;101766.06;;;19.51;46.58
76122;BME280;64853;53.200;6.080;2023-02-21T16:24:28;101761.91;;;19.48;46.40
76122;BME280;64853;53.200;6.080;2023-02-21T16:29:21;101760.28;;;19.42;46.46
76122;BME280;64853;53.200;6.080;2023-02-21T16:34:13;101757.19;;;19.38;46.58
76122;BME280;64853;53.200;6.080;2023-02-21T16:39:04;101756.09;;;19.44;45.97
76122;BME280;64853;53.200;6.080;2023-02-21T16:43:56;101756.38;;;19.43;46.25
76122;BME280;64853;53.200;6.080;2023-02-21T16:48:48;101767.16;;;19.34;46.57
76122;BME280;64853;53.200;6.080;2023-02-21T16:53:40;101759.97;;;19.38;46.04
76122;BME280;64853;53.200;6.080;2023-02-21T16:58:33;101769.09;;;19.44;46.67
76122;BME280;64853;53.200;6.080;2023-02-21T17:03:26;101769.91;;;19.44;46.34
76122;BME280;64853;53.200;6.080;2023-02-21T17:08:20;101776.00;;;19.36;46.04
76122;BME280;64853;53.200;6.080;2023-02-21T17:13:11;101776.28;;;19.29;46.14
76122;BME280;64853;53.200;6.080;2023-02-21T17:18:03;101780.97;;;19.39;45.73
76122;BME280;64853;53.200;6.080;2023-02-21T17:22:55;101779.84;;;19.30;45.71
76122;BME280;64853;53.200;6.080;2023-02-21T17:27:49;101783.75;;;19.39;46.46
76122;BME280;64853;53.200;6.080;2023-02-21T17:32:41;101790.66;;;19.47;45.77
76122;BME280;64853;53.200;6.080;2023-02-21T17:37:32;101787.31;;;19.45;46.09
76122;BME280;64853;53.200;6.080;2023-02-21T17:42:24;101790.09;;;19.45;46.01
76122;BME280;64853;53.200;6.080;2023-02-21T17:47:19;101792.59;;;19.36;46.12
76122;BME280;64853;53.200;6.080;2023-02-21T17:52:11;101795.63;;;19.40;45.95
76122;BME280;64853;53.200;6.080;2023-02-21T17:57:04;101794.78;;;19.50;45.51
76122;BME280;64853;53.200;6.080;2023-02-21T18:01:57;101790.13;;;19.50;45.58
76122;BME280;64853;53.200;6.080;2023-02-21T18:06:50;101792.84;;;19.45;45.84
76122;BME280;64853;53.200;6.080;2023-02-21T18:11:47;101789.00;;;19.36;46.24
76122;BME280;64853;53.200;6.080;2023-02-21T18:16:39;101796.97;;;19.32;46.23
76122;BME280;64853;53.200;6.080;2023-02-21T18:21:31;101789.50;;;19.27;46.19
76122;BME280;64853;53.200;6.080;2023-02-21T18:26:24;101795.63;;;19.40;46.01
76122;BME280;64853;53.200;6.080;2023-02-21T18:31:16;101791.50;;;19.42;45.91
76122;BME280;64853;53.200;6.080;2023-02-21T18:36:07;101795.34;;;19.41;46.05
76122;BME280;64853;53.200;6.080;2023-02-21T18:40:59;101800.31;;;19.39;46.29
76122;BME280;64853;53.200;6.080;2023-02-21T18:45:53;101800.06;;;19.36;47.50
76122;BME280;64853;53.200;6.080;2023-02-21T18:50:46;101793.44;;;19.42;47.46
76122;BME280;64853;53.200;6.080;2023-02-21T18:55:37;101790.66;;;19.42;46.60
76122;BME280;64853;53.200;6.080;2023-02-21T19:00:30;101783.19;;;19.37;46.65
76122;BME280;64853;53.200;6.080;2023-02-21T19:05:24;101783.16;;;19.32;46.55
76122;BME280;64853;53.200;6.080;2023-02-21T19:10:17;101773.78;;;19.28;46.47
76122;BME280;64853;53.200;6.080;2023-02-21T19:15:10;101770.47;;;19.36;46.24
76122;BME280;64853;53.200;6.080;2023-02-21T19:20:02;101766.63;;;19.37;46.22
76122;BME280;64853;53.200;6.080;2023-02-21T19:24:56;101762.16;;;19.26;46.51
76122;BME280;64853;53.200;6.080;2023-02-21T19:29:47;101749.47;;;19.30;46.97
76122;BME280;64853;53.200;6.080;2023-02-21T19:34:39;101746.16;;;19.38;46.58
76122;BME280;64853;53.200;6.080;2023-02-21T19:39:31;101739.81;;;19.33;46.72
76122;BME280;64853;53.200;6.080;2023-02-21T19:44:24;101736.75;;;19.39;48.54
76122;BME280;64853;53.200;6.080;2023-02-21T19:49:15;101737.56;;;19.45;47.18
76122;BME280;64853;53.200;6.080;2023-02-21T19:54:07;101741.19;;;19.45;46.22
76122;BME280;64853;53.200;6.080;2023-02-21T19:58:59;101743.09;;;19.40;46.54
76122;BME280;64853;53.200;6.080;2023-02-21T20:03:51;101733.16;;;19.34;46.25
76122;BME280;64853;53.200;6.080;2023-02-21T20:08:43;101726.22;;;19.26;46.53
76122;BME280;64853;53.200;6.080;2023-02-21T20:13:37;101736.50;;;19.36;46.44
76122;BME280;64853;53.200;6.080;2023-02-21T20:18:28;101736.75;;;19.39;46.85
76122;BME280;64853;53.200;6.080;2023-02-21T20:23:21;101721.28;;;19.38;48.02
76122;BME280;64853;53.200;6.080;2023-02-21T20:28:13;101729.00;;;19.46;48.68
76122;BME280;64853;53.200;6.080;2023-02-21T20:33:04;101726.81;;;19.48;47.21
76122;BME280;64853;53.200;6.080;2023-02-21T20:37:56;101722.38;;;19.47;46.74
76122;BME280;64853;53.200;6.080;2023-02-21T20:42:52;101722.94;;;19.44;46.88
76122;BME280;64853;53.200;6.080;2023-02-21T20:47:44;101726.81;;;19.38;46.95
76122;BME280;64853;53.200;6.080;2023-02-21T20:52:35;101727.63;;;19.34;46.76
76122;BME280;64853;53.200;6.080;2023-02-21T20:57:27;101719.34;;;19.28;46.81
76122;BME280;64853;53.200;6.080;2023-02-21T21:02:21;101717.13;;;19.25;46.34
76122;BME280;64853;53.200;6.080;2023-02-21T21:07:18;101716.84;;;19.22;46.48
76122;BME280;64853;53.200;6.080;2023-02-21T21:12:13;101714.63;;;19.19;46.32
76122;BME280;64853;53.200;6.080;2023-02-21T21:17:06;101706.34;;;19.14;46.69
76122;BME280;64853;53.200;6.080;2023-02-21T21:21:59;101713.50;;;19.15;46.58
76122;BME280;64853;53.200;6.080;2023-02-21T21:26:51;101715.72;;;19.13;46.42
76122;BME280;64853;53.200;6.080;2023-02-21T21:31:45;101704.41;;;19.09;46.24
76122;BME280;64853;53.200;6.080;2023-02-21T21:36:37;101711.28;;;19.06;46.39
76122;BME280;64853;53.200;6.080;2023-02-21T21:41:30;101709.66;;;19.05;46.45
76122;BME280;64853;53.200;6.080;2023-02-21T21:46:23;101709.34;;;19.02;46.12
76122;BME280;64853;53.200;6.080;2023-02-21T21:51:14;101701.88;;;18.97;45.98
76122;BME280;64853;53.200;6.080;2023-02-21T21:56:07;101699.66;;;18.94;45.78
76122;BME280;64853;53.200;6.080;2023-02-21T22:01:03;101699.13;;;18.92;45.73
76122;BME280;64853;53.200;6.080;2023-02-21T22:05:55;101693.03;;;18.90;45.51
76122;BME280;64853;53.200;6.080;2023-02-21T22:10:49;101686.97;;;18.88;45.89
76122;BME280;64853;53.200;6.080;2023-02-21T22:15:42;101682.00;;;18.85;45.86
76122;BME280;64853;53.200;6.080;2023-02-21T22:20:35;101686.41;;;18.81;45.86
76122;BME280;64853;53.200;6.080;2023-02-21T22:25:28;101676.69;;;18.78;45.51
76122;BME280;64853;53.200;6.080;2023-02-21T22:30:21;101655.69;;;18.72;45.91
76122;BME280;64853;53.200;6.080;2023-02-21T22:35:15;101665.38;;;18.74;45.79
76122;BME280;64853;53.200;6.080;2023-02-21T22:40:10;101666.72;;;18.72;45.79
76122;BME280;64853;53.200;6.080;2023-02-21T22:45:02;101659.84;;;18.69;45.39
76122;BME280;64853;53.200;6.080;2023-02-21T22:49:53;101660.09;;;18.68;45.78
76122;BME280;64853;53.200;6.080;2023-02-21T22:54:45;101657.63;;;18.66;45.72
76122;BME280;64853;53.200;6.080;2023-02-21T22:59:38;101658.16;;;18.63;45.54
76122;BME280;64853;53.200;6.080;2023-02-21T23:04:32;101653.19;;;18.60;45.54
76122;BME280;64853;53.200;6.080;2023-02-21T23:09:25;101644.34;;;18.58;45.35
76122;BME280;64853;53.200;6.080;2023-02-21T23:14:18;101637.16;;;18.57;45.38
76122;BME280;64853;53.200;6.080;2023-02-21T23:19:13;101632.19;;;18.54;45.49
76122;BME280;64853;53.200;6.080;2023-02-21T23:24:06;101629.69;;;18.52;45.23
76122;BME280;64853;53.200;6.080;2023-02-21T23:29:00;101620.06;;;18.50;45.38
76122;BME280;64853;53.200;6.080;2023-02-21T23:33:51;101617.84;;;18.47;45.41
76122;BME280;64853;53.200;6.080;2023-02-21T23:38:44;101607.34;;;18.44;45.44
76122;BME280;64853;53.200;6.080;2023-02-21T23:43:36;101599.06;;;18.44;45.35
76122;BME280;64853;53.200;6.080;2023-02-21T23:48:29;101603.19;;;18.41;45.31
76122;BME280;64853;53.200;6.080;2023-02-21T23:53:22;101600.69;;;18.39;45.32
76122;BME280;64853;53.200;6.080;2023-02-21T23:58:17;101572.78;;;18.20;45.26
